createdAt,value
2018-02-26T00:01:41.409Z,-4.90
2018-02-26T00:04:08.920Z,-4.90
2018-02-26T00:06:36.407Z,-4.90
2018-02-26T00:09:03.922Z,-4.90
2018-02-26T00:11:31.412Z,-5.00
2018-02-26T00:13:58.977Z,-5.00
2018-02-26T00:16:26.469Z,-5.00
2018-02-26T00:18:53.980Z,-5.00
2018-02-26T00:21:21.464Z,-5.00
2018-02-26T00:23:49.792Z,-5.00
2018-02-26T00:26:17.280Z,-5.00
2018-02-26T00:28:44.783Z,-4.90
2018-02-26T00:31:12.280Z,-4.90
2018-02-26T00:33:39.787Z,-4.90
2018-02-26T00:36:07.280Z,-5.00
2018-02-26T00:38:35.184Z,-5.00
2018-02-26T00:41:03.077Z,-5.00
2018-02-26T00:43:30.978Z,-5.00
2018-02-26T00:45:58.465Z,-5.00
2018-02-26T00:48:26.363Z,-5.10
2018-02-26T00:50:53.847Z,-5.00
2018-02-26T00:53:21.357Z,-5.10
2018-02-26T00:55:49.240Z,-5.10
2018-02-26T00:58:16.750Z,-5.00
2018-02-26T01:00:44.642Z,-5.20
2018-02-26T01:03:12.143Z,-5.20
2018-02-26T01:05:40.029Z,-5.40
2018-02-26T01:08:07.545Z,-5.40
2018-02-26T01:10:35.037Z,-5.50
2018-02-26T01:13:02.952Z,-5.60
2018-02-26T01:15:30.846Z,-5.50
2018-02-26T01:17:58.745Z,-5.50
2018-02-26T01:20:26.623Z,-5.50
2018-02-26T01:22:54.133Z,-5.50
2018-02-26T01:25:22.007Z,-5.40
2018-02-26T01:27:49.516Z,-5.40
2018-02-26T01:30:17.006Z,-5.40
2018-02-26T01:32:44.492Z,-5.50
2018-02-26T01:35:11.997Z,-5.50
2018-02-26T01:37:39.480Z,-5.60
2018-02-26T01:40:06.979Z,-5.50
2018-02-26T01:42:34.476Z,-5.60
2018-02-26T01:45:01.983Z,-5.60
2018-02-26T01:47:29.873Z,-5.70
2018-02-26T01:49:57.392Z,-5.60
2018-02-26T01:52:25.281Z,-5.80
2018-02-26T01:54:53.175Z,-5.80
2018-02-26T01:57:20.664Z,-5.80
2018-02-26T01:59:48.167Z,-5.80
2018-02-26T02:02:16.053Z,-5.80
2018-02-26T02:04:43.547Z,-5.80
2018-02-26T02:07:11.036Z,-5.90
2018-02-26T02:09:38.545Z,-5.90
2018-02-26T02:12:06.450Z,-5.90
2018-02-26T02:14:34.359Z,-5.90
2018-02-26T02:17:02.246Z,-5.90
2018-02-26T02:19:29.751Z,-5.90
2018-02-26T02:21:57.423Z,-5.90
2018-02-26T02:24:24.932Z,-5.90
2018-02-26T02:26:52.425Z,-6.00
2018-02-26T02:29:19.938Z,-5.90
2018-02-26T02:31:47.830Z,-6.00
2018-02-26T02:34:15.328Z,-6.00
2018-02-26T02:36:42.820Z,-6.00
2018-02-26T02:39:10.336Z,-6.00
2018-02-26T02:41:37.832Z,-6.00
2018-02-26T02:44:05.745Z,-5.90
2018-02-26T02:46:33.322Z,-5.90
2018-02-26T02:49:01.229Z,-6.00
2018-02-26T02:51:28.729Z,-6.00
2018-02-26T02:53:56.237Z,-6.00
2018-02-26T02:56:23.729Z,-6.00
2018-02-26T02:58:51.248Z,-6.00
2018-02-26T03:01:18.841Z,-6.00
2018-02-26T03:03:46.333Z,-6.00
2018-02-26T03:06:13.840Z,-6.00
2018-02-26T03:08:41.334Z,-6.00
2018-02-26T03:11:09.238Z,-5.90
2018-02-26T03:13:37.120Z,-5.80
2018-02-26T03:16:04.708Z,-5.80
2018-02-26T03:18:32.279Z,-5.80
2018-02-26T03:20:59.793Z,-5.80
2018-02-26T03:23:27.674Z,-5.80
2018-02-26T03:25:55.264Z,-5.80
2018-02-26T03:28:22.866Z,-5.80
2018-02-26T03:30:50.441Z,-5.80
2018-02-26T03:33:17.937Z,-5.90
2018-02-26T03:35:45.440Z,-5.90
2018-02-26T03:38:12.929Z,-5.90
2018-02-26T03:40:40.441Z,-5.90
2018-02-26T03:43:07.987Z,-6.00
2018-02-26T03:45:35.487Z,-5.90
2018-02-26T03:48:02.976Z,-5.90
2018-02-26T03:50:30.568Z,-5.80
2018-02-26T03:52:58.152Z,-5.80
2018-02-26T03:55:25.665Z,-5.70
2018-02-26T03:57:53.538Z,-5.60
2018-02-26T04:00:21.049Z,-5.60
2018-02-26T04:02:48.543Z,-5.60
2018-02-26T04:05:16.128Z,-5.60
2018-02-26T04:07:43.621Z,-5.60
2018-02-26T04:10:11.196Z,-5.50
2018-02-26T04:12:38.689Z,-5.50
2018-02-26T04:15:06.191Z,-5.50
2018-02-26T04:17:34.087Z,-5.50
2018-02-26T04:20:01.995Z,-5.50
2018-02-26T04:22:29.498Z,-5.50
2018-02-26T04:24:57.025Z,-5.50
2018-02-26T04:27:24.507Z,-5.50
2018-02-26T04:29:52.044Z,-5.50
2018-02-26T04:32:19.943Z,-5.60
2018-02-26T04:34:47.842Z,-5.60
2018-02-26T04:37:15.744Z,-5.60
2018-02-26T04:39:43.711Z,-5.60
2018-02-26T04:42:11.230Z,-5.60
2018-02-26T04:44:39.121Z,-5.70
2018-02-26T04:47:06.700Z,-5.70
2018-02-26T04:49:34.197Z,-5.70
2018-02-26T04:52:01.709Z,-5.70
2018-02-26T04:54:29.195Z,-5.70
2018-02-26T04:56:57.165Z,-5.80
2018-02-26T04:59:24.672Z,-5.80
2018-02-26T05:01:52.643Z,-5.70
2018-02-26T05:04:20.123Z,-5.80
2018-02-26T05:06:47.650Z,-5.70
2018-02-26T05:09:15.254Z,-5.70
2018-02-26T05:11:43.158Z,-5.70
2018-02-26T05:14:11.144Z,-5.70
2018-02-26T05:16:38.660Z,-5.70
2018-02-26T05:19:06.156Z,-5.80
2018-02-26T05:21:33.695Z,-5.70
2018-02-26T05:24:01.183Z,-5.70
2018-02-26T05:26:28.815Z,-5.60
2018-02-26T05:28:56.375Z,-5.60
2018-02-26T05:31:23.957Z,-5.60
2018-02-26T05:33:51.446Z,-5.60
2018-02-26T05:36:19.040Z,-5.60
2018-02-26T05:38:46.629Z,-5.60
2018-02-26T05:41:14.143Z,-5.60
2018-02-26T05:43:42.119Z,-5.60
2018-02-26T05:46:09.631Z,-5.60
2018-02-26T05:48:37.512Z,-5.60
2018-02-26T05:51:05.009Z,-5.60
2018-02-26T05:53:32.596Z,-5.60
2018-02-26T05:56:00.087Z,-5.60
2018-02-26T05:58:27.621Z,-5.60
2018-02-26T06:01:00.736Z,-5.60
2018-02-26T06:03:28.275Z,-5.60
2018-02-26T06:05:55.868Z,-5.60
2018-02-26T06:08:23.374Z,-5.60
2018-02-26T06:10:51.264Z,-5.60
2018-02-26T06:13:18.777Z,-5.60
2018-02-26T06:15:46.272Z,-5.60
2018-02-26T06:18:14.193Z,-5.60
2018-02-26T06:20:41.681Z,-5.60
2018-02-26T06:23:09.183Z,-5.70
2018-02-26T06:25:36.677Z,-5.70
2018-02-26T06:28:04.243Z,-5.70
2018-02-26T06:30:32.129Z,-5.70
2018-02-26T06:33:00.027Z,-5.70
2018-02-26T06:35:27.520Z,-5.70
2018-02-26T06:37:55.108Z,-5.70
2018-02-26T06:40:22.715Z,-5.70
2018-02-26T06:42:50.230Z,-5.80
2018-02-26T06:45:17.716Z,-5.80
2018-02-26T06:47:45.264Z,-5.70
2018-02-26T06:50:12.757Z,-5.70
2018-02-26T06:52:40.269Z,-5.60
2018-02-26T06:55:08.162Z,-5.70
2018-02-26T06:57:35.752Z,-5.60
2018-02-26T07:00:03.245Z,-5.70
2018-02-26T07:02:30.821Z,-5.70
2018-02-26T07:04:58.312Z,-5.70
2018-02-26T07:07:25.824Z,-5.70
2018-02-26T07:09:53.708Z,-5.60
2018-02-26T07:12:21.680Z,-5.60
2018-02-26T07:14:49.169Z,-5.60
2018-02-26T07:17:16.651Z,-5.50
2018-02-26T07:19:44.154Z,-5.50
2018-02-26T07:22:11.640Z,-5.40
2018-02-26T07:24:39.270Z,-5.30
2018-02-26T07:27:07.248Z,-5.20
2018-02-26T07:29:34.833Z,-5.10
2018-02-26T07:32:02.432Z,-5.10
2018-02-26T07:34:30.017Z,-5.10
2018-02-26T07:36:57.509Z,-5.00
2018-02-26T07:39:25.016Z,-4.90
2018-02-26T07:41:52.896Z,-4.80
2018-02-26T07:44:20.405Z,-4.80
2018-02-26T07:46:48.284Z,-4.70
2018-02-26T07:49:15.788Z,-4.70
2018-02-26T07:51:43.757Z,-4.50
2018-02-26T07:54:11.260Z,-4.50
2018-02-26T07:56:38.750Z,-4.40
2018-02-26T07:59:06.257Z,-4.40
2018-02-26T08:01:33.813Z,-2.20
2018-02-26T08:04:01.392Z,-2.90
2018-02-26T08:06:28.988Z,-3.40
2018-02-26T08:08:56.497Z,-3.60
2018-02-26T08:11:24.376Z,-3.80
2018-02-26T08:13:51.992Z,-3.80
2018-02-26T08:16:19.882Z,-4.00
2018-02-26T08:18:47.784Z,-3.90
2018-02-26T08:21:15.767Z,-3.90
2018-02-26T08:23:43.269Z,-3.80
2018-02-26T08:26:10.762Z,-3.80
2018-02-26T08:28:38.741Z,-3.80
2018-02-26T08:31:06.247Z,-3.80
2018-02-26T08:33:34.156Z,-4.10
2018-02-26T08:36:02.048Z,-4.00
2018-02-26T08:38:29.952Z,-3.80
2018-02-26T08:40:57.833Z,-3.40
2018-02-26T08:43:25.814Z,-3.10
2018-02-26T08:45:53.320Z,-3.10
2018-02-26T08:48:21.208Z,-2.60
2018-02-26T08:50:48.708Z,-2.60
2018-02-26T08:53:16.280Z,-2.70
2018-02-26T08:55:43.866Z,-2.80
2018-02-26T08:58:11.353Z,-3.10
2018-02-26T09:00:38.860Z,-3.10
2018-02-26T09:03:06.449Z,-3.20
2018-02-26T09:05:33.978Z,-3.10
2018-02-26T09:08:01.524Z,-2.80
2018-02-26T09:10:29.024Z,-2.40
2018-02-26T09:12:56.911Z,-1.70
2018-02-26T09:15:24.429Z,-1.70
2018-02-26T09:17:51.929Z,-1.30
2018-02-26T09:20:19.440Z,-1.00
2018-02-26T09:22:46.951Z,-1.10
2018-02-26T09:25:14.455Z,-1.10
2018-02-26T09:27:42.341Z,-1.10
2018-02-26T09:30:09.853Z,-1.10
2018-02-26T09:32:37.400Z,-1.20
2018-02-26T09:35:04.905Z,-1.00
2018-02-26T09:37:32.880Z,-1.10
2018-02-26T09:40:00.381Z,-1.10
2018-02-26T09:42:27.885Z,-1.30
2018-02-26T09:44:55.791Z,-1.30
2018-02-26T09:47:23.676Z,-1.40
2018-02-26T09:49:57.227Z,-1.70
2018-02-26T09:52:25.113Z,-2.00
2018-02-26T09:54:53.016Z,-2.10
2018-02-26T09:57:20.577Z,-2.00
2018-02-26T09:59:48.109Z,-2.20
2018-02-26T10:02:15.571Z,-2.20
2018-02-26T10:04:43.125Z,-2.00
2018-02-26T10:07:10.603Z,-1.80
2018-02-26T10:09:38.194Z,-1.80
2018-02-26T10:12:05.680Z,-1.80
2018-02-26T10:14:33.159Z,-1.80
2018-02-26T10:17:00.751Z,-1.70
2018-02-26T10:19:28.365Z,-1.40
2018-02-26T10:21:55.853Z,-1.20
2018-02-26T10:24:23.741Z,-1.30
2018-02-26T10:26:52.541Z,-1.70
2018-02-26T10:29:20.030Z,-1.70
2018-02-26T10:31:48.037Z,-2.20
2018-02-26T10:34:15.932Z,-2.30
2018-02-26T10:36:43.901Z,-2.40
2018-02-26T10:39:11.398Z,-2.40
2018-02-26T10:41:38.913Z,-2.60
2018-02-26T10:44:06.409Z,-2.70
2018-02-26T10:46:33.916Z,-2.70
2018-02-26T10:49:01.438Z,-2.30
2018-02-26T10:51:29.024Z,-2.10
2018-02-26T10:53:56.600Z,-1.70
2018-02-26T10:56:24.102Z,-1.60
2018-02-26T10:58:51.593Z,-1.30
2018-02-26T11:01:19.106Z,-1.00
2018-02-26T11:03:47.074Z,-0.40
2018-02-26T11:06:14.580Z,-0.40
2018-02-26T11:08:42.465Z,-0.80
2018-02-26T11:11:09.972Z,-0.80
2018-02-26T11:13:37.866Z,-1.20
2018-02-26T11:16:05.770Z,-1.60
2018-02-26T11:18:33.737Z,-1.70
2018-02-26T11:21:01.241Z,-1.70
2018-02-26T11:23:29.141Z,-1.10
2018-02-26T11:25:56.631Z,-1.10
2018-02-26T11:28:24.504Z,-0.90
2018-02-26T11:30:52.009Z,-0.90
2018-02-26T11:33:19.560Z,-0.90
2018-02-26T11:35:47.068Z,-1.10
2018-02-26T11:38:14.670Z,-1.10
2018-02-26T11:40:42.636Z,-1.40
2018-02-26T11:43:10.138Z,-1.40
2018-02-26T11:45:37.720Z,-1.50
2018-02-26T11:48:05.305Z,-1.70
2018-02-26T11:50:32.793Z,-1.90
2018-02-26T11:53:00.305Z,-2.10
2018-02-26T11:55:28.196Z,-2.30
2018-02-26T11:57:55.703Z,-2.30
2018-02-26T12:00:23.590Z,-2.30
2018-02-26T12:02:51.494Z,-2.10
2018-02-26T12:05:19.414Z,-2.10
2018-02-26T12:07:46.908Z,-2.10
2018-02-26T12:10:14.389Z,1.10
2018-02-26T12:12:41.883Z,-0.10
2018-02-26T12:15:09.403Z,-1.00
2018-02-26T12:17:36.900Z,-1.30
2018-02-26T12:20:04.389Z,-1.50
2018-02-26T12:22:31.953Z,-1.60
2018-02-26T12:24:59.471Z,-1.20
2018-02-26T12:27:26.973Z,-1.60
2018-02-26T12:29:54.541Z,-1.80
2018-02-26T12:32:22.091Z,-1.90
2018-02-26T12:34:49.610Z,-2.00
2018-02-26T12:37:17.107Z,-2.10
2018-02-26T12:39:45.088Z,-1.90
2018-02-26T12:42:12.579Z,-1.90
2018-02-26T12:44:40.111Z,-2.00
2018-02-26T12:47:07.988Z,-1.90
2018-02-26T12:49:35.533Z,-1.90
2018-02-26T12:52:03.029Z,-2.10
2018-02-26T12:54:31.017Z,-2.40
2018-02-26T12:56:58.526Z,-2.30
2018-02-26T12:59:26.510Z,-2.60
2018-02-26T13:01:54.013Z,-2.60
2018-02-26T13:04:21.925Z,-2.60
2018-02-26T13:06:49.460Z,-2.60
2018-02-26T13:09:16.977Z,-2.50
2018-02-26T13:11:44.860Z,-2.70
2018-02-26T13:14:12.752Z,-2.80
2018-02-26T13:16:40.727Z,-2.90
2018-02-26T13:19:08.228Z,-2.80
2018-02-26T13:21:35.826Z,-2.80
2018-02-26T13:24:03.725Z,-2.60
2018-02-26T13:26:31.697Z,-2.70
2018-02-26T13:28:59.200Z,-2.70
2018-02-26T13:31:27.081Z,-2.70
2018-02-26T13:33:54.588Z,-2.70
2018-02-26T13:36:22.081Z,-2.70
2018-02-26T13:38:49.590Z,-2.60
2018-02-26T13:41:17.081Z,-2.50
2018-02-26T13:43:44.584Z,-2.40
2018-02-26T13:46:12.063Z,-2.30
2018-02-26T13:48:39.572Z,-2.50
2018-02-26T13:51:07.162Z,-2.80
2018-02-26T13:53:34.744Z,-2.80
2018-02-26T13:56:02.233Z,-2.80
2018-02-26T13:58:29.814Z,-2.70
2018-02-26T14:00:57.316Z,-2.70
2018-02-26T14:03:25.235Z,-2.80
2018-02-26T14:05:52.736Z,-2.80
2018-02-26T14:08:21.433Z,-3.00
2018-02-26T14:10:48.928Z,-3.00
2018-02-26T14:13:16.421Z,-3.10
2018-02-26T14:15:43.961Z,-3.10
2018-02-26T14:18:11.841Z,-2.80
2018-02-26T14:20:39.443Z,-2.80
2018-02-26T14:23:07.414Z,-2.80
2018-02-26T14:25:34.918Z,-2.80
2018-02-26T14:28:02.892Z,-2.60
2018-02-26T14:30:30.388Z,-2.60
2018-02-26T14:32:57.965Z,-2.60
2018-02-26T14:35:25.548Z,-2.50
2018-02-26T14:37:53.066Z,-2.70
2018-02-26T14:40:20.967Z,-3.00
2018-02-26T14:42:48.457Z,-3.00
2018-02-26T14:45:15.935Z,-3.00
2018-02-26T14:47:43.449Z,-2.90
2018-02-26T14:50:10.941Z,-2.80
2018-02-26T14:52:38.444Z,-2.80
2018-02-26T14:55:05.944Z,-2.80
2018-02-26T14:57:33.826Z,-2.60
2018-02-26T15:00:01.323Z,-2.60
2018-02-26T15:02:28.811Z,-2.60
2018-02-26T15:04:56.392Z,-2.60
2018-02-26T15:07:23.885Z,-2.50
2018-02-26T15:09:51.776Z,-2.40
2018-02-26T15:12:19.265Z,-2.40
2018-02-26T15:14:46.769Z,-2.20
2018-02-26T15:17:14.647Z,-2.00
2018-02-26T15:19:42.539Z,-1.90
2018-02-26T15:22:10.025Z,-2.00
2018-02-26T15:24:38.012Z,-2.20
2018-02-26T15:27:05.602Z,-2.20
2018-02-26T15:29:33.105Z,-2.20
2018-02-26T15:32:01.072Z,-2.40
2018-02-26T15:34:28.594Z,-2.40
2018-02-26T15:36:56.080Z,-2.70
2018-02-26T15:39:23.589Z,-2.70
2018-02-26T15:41:51.088Z,-2.70
2018-02-26T15:44:18.598Z,-2.80
2018-02-26T15:46:46.108Z,-2.90
2018-02-26T15:49:14.009Z,-3.00
2018-02-26T15:51:41.492Z,-3.00
2018-02-26T15:54:09.010Z,-3.00
2018-02-26T15:56:36.525Z,-2.90
2018-02-26T15:59:04.048Z,-2.90
2018-02-26T16:01:31.558Z,-2.80
2018-02-26T16:03:59.073Z,-2.80
2018-02-26T16:06:26.561Z,-2.80
2018-02-26T16:08:54.042Z,-2.70
2018-02-26T16:11:21.643Z,-2.60
2018-02-26T16:13:49.620Z,-2.60
2018-02-26T16:16:17.145Z,-2.60
2018-02-26T16:18:44.629Z,-2.60
2018-02-26T16:21:12.146Z,-2.70
2018-02-26T16:23:39.668Z,-3.00
2018-02-26T16:26:07.252Z,-3.10
2018-02-26T16:28:34.741Z,-3.20
2018-02-26T16:31:02.252Z,-3.10
2018-02-26T16:33:29.745Z,-3.20
2018-02-26T16:35:57.257Z,-3.10
2018-02-26T16:38:24.749Z,-3.10
2018-02-26T16:40:52.254Z,-3.10
2018-02-26T16:43:19.755Z,-3.00
2018-02-26T16:45:47.738Z,-3.00
2018-02-26T16:48:15.343Z,-3.00
2018-02-26T16:50:43.238Z,-3.20
2018-02-26T16:53:11.133Z,-3.30
2018-02-26T16:55:39.024Z,-3.40
2018-02-26T16:58:07.006Z,-3.40
2018-02-26T17:00:34.984Z,-3.40
2018-02-26T17:03:02.469Z,-3.40
2018-02-26T17:05:30.084Z,-3.40
2018-02-26T17:07:58.047Z,-3.50
2018-02-26T17:10:25.560Z,-3.50
2018-02-26T17:12:53.440Z,-3.50
2018-02-26T17:15:21.044Z,-3.50
2018-02-26T17:17:48.937Z,-3.60
2018-02-26T17:20:16.449Z,-3.60
2018-02-26T17:22:43.954Z,-3.70
2018-02-26T17:25:11.564Z,-3.60
2018-02-26T17:27:39.149Z,-3.60
2018-02-26T17:30:06.647Z,-3.60
2018-02-26T17:32:34.152Z,-3.60
2018-02-26T17:35:01.645Z,-3.60
2018-02-26T17:37:29.152Z,-3.50
2018-02-26T17:39:56.665Z,-3.50
2018-02-26T17:42:24.172Z,-3.40
2018-02-26T17:44:52.253Z,-3.40
2018-02-26T17:47:19.762Z,-3.40
2018-02-26T17:49:47.732Z,-3.60
2018-02-26T17:52:15.231Z,-3.60
2018-02-26T17:54:43.113Z,-3.70
2018-02-26T17:57:10.692Z,-3.70
2018-02-26T17:59:38.271Z,-3.80
2018-02-26T18:02:05.773Z,-3.80
2018-02-26T18:04:33.659Z,-3.80
2018-02-26T18:07:01.157Z,-3.80
2018-02-26T18:09:29.048Z,-3.80
2018-02-26T18:11:56.630Z,-3.80
2018-02-26T18:14:24.108Z,-3.80
2018-02-26T18:16:51.617Z,-3.80
2018-02-26T18:19:19.501Z,-3.80
2018-02-26T18:21:47.414Z,-3.80
2018-02-26T18:24:14.925Z,-3.80
2018-02-26T18:26:42.428Z,-3.80
2018-02-26T19:00:58.433Z,-4.20
2018-02-26T19:03:25.932Z,-4.20
2018-02-26T19:05:53.804Z,-4.20
2018-02-26T19:08:21.492Z,-4.20
2018-02-26T19:10:49.007Z,-4.30
2018-02-26T19:13:16.522Z,-4.30
2018-02-26T19:15:44.025Z,-4.30
2018-02-26T19:18:11.541Z,-4.30
2018-02-26T19:20:39.036Z,-4.40
2018-02-26T19:23:06.945Z,-4.30
2018-02-26T19:25:34.936Z,-4.30
2018-02-26T19:28:02.912Z,-4.30
2018-02-26T19:30:30.480Z,-4.30
2018-02-26T19:32:58.087Z,-4.30
2018-02-26T19:35:25.588Z,-4.30
2018-02-26T19:37:53.497Z,-4.30
2018-02-26T19:40:21.038Z,-4.30
2018-02-26T19:42:48.538Z,-4.30
2018-02-26T19:45:16.160Z,-4.30
2018-02-26T19:47:43.665Z,-4.30
2018-02-26T19:50:11.156Z,-4.30
2018-02-26T19:52:38.660Z,-4.30
2018-02-26T19:55:06.153Z,-4.30
2018-02-26T19:57:33.656Z,-4.30
2018-02-26T20:00:01.590Z,-4.20
2018-02-26T20:02:29.096Z,-4.20
2018-02-26T20:04:56.653Z,-4.20
2018-02-26T20:07:24.157Z,-4.20
2018-02-26T20:09:51.772Z,-4.20
2018-02-26T20:12:19.277Z,-4.30
2018-02-26T20:14:47.392Z,-4.20
2018-02-26T20:17:14.912Z,-4.20
2018-02-26T20:19:42.686Z,-4.20
2018-02-26T20:22:10.175Z,-4.20
2018-02-26T20:24:37.805Z,-4.10
2018-02-26T20:27:05.305Z,-4.10
2018-02-26T20:29:33.273Z,-4.10
2018-02-26T20:32:00.766Z,-4.10
2018-02-26T20:34:28.429Z,-4.10
2018-02-26T20:36:55.916Z,-4.10
2018-02-26T20:39:23.515Z,-4.10
2018-02-26T20:41:51.000Z,-4.10
2018-02-26T20:44:18.737Z,-4.10
2018-02-26T20:46:46.268Z,-4.00
2018-02-26T20:49:14.014Z,-4.00
2018-02-26T20:51:41.564Z,-4.10
2018-02-26T20:54:09.148Z,-4.10
2018-02-26T20:56:36.743Z,-4.00
2018-02-26T20:59:04.344Z,-4.00
2018-02-26T21:01:33.139Z,-3.90
2018-02-26T21:04:00.648Z,-3.90
2018-02-26T21:06:28.546Z,-3.80
2018-02-26T21:08:56.449Z,-3.80
2018-02-26T21:11:24.342Z,-3.70
2018-02-26T21:13:51.904Z,-3.70
2018-02-26T21:16:19.793Z,-3.70
2018-02-26T21:18:47.388Z,-3.70
2018-02-26T21:21:15.285Z,-3.90
2018-02-26T21:23:43.268Z,-3.90
2018-02-26T21:26:10.852Z,-3.90
2018-02-26T21:28:38.343Z,-3.90
2018-02-26T21:31:05.954Z,-3.90
2018-02-26T21:33:33.984Z,-3.90
2018-02-26T21:36:01.865Z,-3.90
2018-02-26T21:38:29.408Z,-3.90
2018-02-26T21:40:57.330Z,-3.90
2018-02-26T21:43:24.822Z,-3.90
2018-02-26T21:45:52.373Z,-3.90
2018-02-26T21:48:19.924Z,-3.90
2018-02-26T21:50:47.429Z,-3.90
2018-02-26T21:53:14.932Z,-3.90
2018-02-26T21:55:42.441Z,-3.90
2018-02-26T21:58:09.941Z,-4.00
2018-02-26T22:00:37.472Z,-4.00
2018-02-26T22:03:05.092Z,-4.00
2018-02-26T22:05:32.584Z,-3.90
2018-02-26T22:08:00.146Z,-3.90
2018-02-26T22:10:28.036Z,-4.00
2018-02-26T22:12:55.543Z,-4.00
2018-02-26T22:15:23.507Z,-4.10
2018-02-26T22:17:51.008Z,-4.10
2018-02-26T22:20:18.906Z,-4.20
2018-02-26T22:22:46.800Z,-4.20
2018-02-26T22:25:14.773Z,-4.20
2018-02-26T22:27:42.282Z,-4.20
2018-02-26T22:30:10.257Z,-4.20
2018-02-26T22:32:37.848Z,-4.20
2018-02-26T22:35:05.340Z,-4.30
2018-02-26T22:37:32.920Z,-4.30
2018-02-26T22:40:00.417Z,-4.30
2018-02-26T22:42:28.321Z,-4.30
2018-02-26T22:44:56.301Z,-4.30
2018-02-26T22:47:23.892Z,-4.30
2018-02-26T22:49:51.465Z,-4.30
2018-02-26T22:52:18.961Z,-4.40
2018-02-26T22:54:46.516Z,-4.40
2018-02-26T22:57:14.013Z,-4.40
2018-02-26T22:59:41.612Z,-4.40
2018-02-26T23:02:09.116Z,-4.40
2018-02-26T23:04:36.995Z,-4.40
2018-02-26T23:07:04.506Z,-4.40
2018-02-26T23:09:32.467Z,-4.50
2018-02-26T23:11:59.974Z,-4.50
2018-02-26T23:14:27.954Z,-4.50
2018-02-26T23:16:55.452Z,-4.50
2018-02-26T23:19:22.943Z,-4.50
2018-02-26T23:21:50.884Z,-4.50
2018-02-26T23:24:18.369Z,-4.50
2018-02-26T23:26:45.882Z,-4.50
2018-02-26T23:29:13.485Z,-4.50
2018-02-26T23:31:41.359Z,-4.50
2018-02-26T23:34:08.855Z,-4.50
2018-02-26T23:36:36.348Z,-4.60
2018-02-26T23:39:04.249Z,-4.60
2018-02-26T23:41:32.229Z,-4.60
2018-02-26T23:43:59.752Z,-4.60
2018-02-26T23:46:27.261Z,-4.60
2018-02-26T23:48:54.770Z,-4.60
2018-02-26T23:51:22.697Z,-4.60
2018-02-26T23:53:50.948Z,-4.60
2018-02-26T23:56:18.445Z,-4.60
2018-02-26T23:58:45.924Z,-4.60
